createdAt,value
2023-04-03T00:10:24.940Z,0
2023-04-03T00:15:42.684Z,0
2023-04-03T00:21:00.109Z,0
2023-04-03T00:26:21.752Z,0
2023-04-03T00:31:39.174Z,0
2023-04-03T00:36:59.825Z,0
2023-04-03T00:42:17.205Z,0
2023-04-03T00:48:19.266Z,0
2023-04-03T00:53:37.069Z,0
2023-04-03T00:58:54.597Z,0
2023-04-03T01:04:12.187Z,0
2023-04-03T01:09:29.628Z,0
2023-04-03T01:14:46.932Z,0
2023-04-03T01:20:03.989Z,0
2023-04-03T01:25:42.509Z,0
2023-04-03T01:31:00.327Z,0
2023-04-03T01:36:17.901Z,0
2023-04-03T01:41:35.161Z,0
2023-04-03T01:47:02.642Z,0
2023-04-03T01:52:20.194Z,0
2023-04-03T01:57:40.856Z,0
2023-04-03T02:02:58.272Z,0
2023-04-03T02:08:15.760Z,0
2023-04-03T02:13:32.908Z,0
2023-04-03T02:18:56.299Z,0
2023-04-03T02:24:13.698Z,0
2023-04-03T02:29:31.111Z,0
2023-04-03T02:34:48.622Z,0
2023-04-03T02:40:05.956Z,0
2023-04-03T02:45:23.136Z,0
2023-04-03T02:50:40.624Z,0
2023-04-03T02:55:57.824Z,0
2023-04-03T03:01:18.584Z,0
2023-04-03T03:06:36.170Z,0
2023-04-03T03:12:00.587Z,0
2023-04-03T03:17:17.850Z,0
2023-04-03T03:22:35.038Z,0
2023-04-03T03:27:52.490Z,0
2023-04-03T03:33:09.814Z,0
2023-04-03T03:38:27.144Z,0
2023-04-03T03:43:44.451Z,0
2023-04-03T03:49:02.042Z,0
2023-04-03T03:59:42.817Z,0
2023-04-03T04:05:00.312Z,0
2023-04-03T04:10:17.766Z,0
2023-04-03T04:15:35.517Z,0
2023-04-03T04:20:56.006Z,0
2023-04-03T04:31:33.335Z,0
2023-04-03T04:36:50.977Z,0
2023-04-03T04:42:08.560Z,0
2023-04-03T04:47:26.076Z,0.5
2023-04-03T04:52:43.138Z,25.8
2023-04-03T04:58:00.114Z,59.6
2023-04-03T05:03:17.140Z,116.3
2023-04-03T05:13:57.593Z,320.4
2023-04-03T05:19:14.619Z,462.5
2023-04-03T05:24:31.771Z,621.2
2023-04-03T05:29:49.019Z,791.2
2023-04-03T05:35:06.242Z,966.7
2023-04-03T05:40:23.597Z,1155
2023-04-03T05:45:40.839Z,1348.3
2023-04-03T05:50:57.963Z,1539.6
2023-04-03T05:57:02.611Z,1715.4
2023-04-03T06:02:20.277Z,2436.7
2023-04-03T06:07:37.719Z,2523.8
2023-04-03T06:12:54.862Z,2195
2023-04-03T06:18:11.891Z,2287.9
2023-04-03T06:23:29.254Z,2499.6
2023-04-03T06:28:56.976Z,2518.3
2023-04-03T06:34:14.775Z,2605.8
2023-04-03T06:39:31.567Z,2701.7
2023-04-03T06:44:49.241Z,2832.9
2023-04-03T06:50:06.489Z,2894.2
2023-04-03T06:55:23.701Z,4817.1
2023-04-03T07:00:40.743Z,4355.8
2023-04-03T07:06:00.512Z,3080
2023-04-03T07:11:17.886Z,3135.4
2023-04-03T07:16:42.974Z,3292.5
2023-04-03T07:22:00.338Z,4365.4
2023-04-03T07:27:17.596Z,6357.9
2023-04-03T07:32:34.991Z,4164.6
2023-04-03T07:37:52.800Z,16443.3
2023-04-03T07:43:10.178Z,9515.8
2023-04-03T07:48:28.135Z,15866.7
2023-04-03T07:53:46.249Z,19632.9
2023-04-03T07:59:04.545Z,20172.1
2023-04-03T08:04:22.369Z,19883.3
2023-04-03T08:09:40.255Z,21205.8
2023-04-03T08:14:57.963Z,24409.6
2023-04-03T08:20:15.519Z,26104.2
2023-04-03T08:25:32.968Z,22678.7
2023-04-03T08:30:50.362Z,28685.8
2023-04-03T08:41:31.830Z,19762.1
2023-04-03T08:46:51.762Z,7928.3
2023-04-03T08:52:08.183Z,32450.8
2023-04-03T08:57:25.491Z,31845.8
2023-04-03T09:08:02.787Z,31277.5
2023-04-03T09:13:20.319Z,35261.7
2023-04-03T09:18:37.950Z,34493.3
2023-04-03T09:23:55.622Z,38720.8
2023-04-03T09:29:12.427Z,34553.3
2023-04-03T09:34:31.211Z,37948.3
2023-04-03T09:39:58.197Z,38665.8
2023-04-03T09:45:14.994Z,36352.5
2023-04-03T09:50:32.491Z,33963.3
2023-04-03T09:55:49.848Z,35259.2
2023-04-03T10:01:06.355Z,41903.3
2023-04-03T10:06:25.359Z,24675.4
2023-04-03T10:11:41.728Z,38276.7
2023-04-03T10:17:49.013Z,41920.8
2023-04-03T10:23:06.682Z,42537.5
2023-04-03T10:28:24.243Z,43219.2
2023-04-03T10:39:05.263Z,40748.3
2023-04-03T10:49:47.254Z,40582.5
2023-04-03T10:55:10.432Z,40935
2023-04-03T11:00:27.232Z,42483.3
2023-04-03T11:05:44.068Z,38988.3
2023-04-03T11:11:01.542Z,41351.7
2023-04-03T11:16:18.943Z,38880
2023-04-03T11:21:35.982Z,41323.3
2023-04-03T11:26:53.007Z,43478.3
2023-04-03T11:32:09.976Z,42681.7
2023-04-03T11:37:27.563Z,42999.2
2023-04-03T11:42:53.723Z,42444.2
2023-04-03T11:48:23.652Z,42932.5
2023-04-03T11:53:41.902Z,43530.8
2023-04-03T11:59:04.566Z,42436.7
2023-04-03T12:04:21.713Z,43411.7
2023-04-03T12:09:39.078Z,41938.3
2023-04-03T12:15:03.584Z,43145.8
2023-04-03T12:20:20.911Z,41312.5
2023-04-03T12:25:38.444Z,35864.2
2023-04-03T12:36:21.212Z,35006.7
2023-04-03T12:41:38.206Z,36796.7
2023-04-03T12:47:05.461Z,39034.2
2023-04-03T12:52:22.617Z,31769.2
2023-04-03T12:57:39.778Z,36740.8
2023-04-03T13:02:56.991Z,37274.2
2023-04-03T13:08:14.161Z,36261.7
2023-04-03T13:14:16.869Z,34977.5
2023-04-03T13:20:13.610Z,33421.7
2023-04-03T13:25:30.371Z,32001.7
2023-04-03T13:30:47.413Z,35411.7
2023-04-03T13:36:04.501Z,33651.7
2023-04-03T13:41:21.659Z,32035
2023-04-03T13:46:39.117Z,31760
2023-04-03T13:52:06.342Z,25241.2
2023-04-03T13:57:24.349Z,30732.5
2023-04-03T14:02:41.424Z,27656.7
2023-04-03T14:08:05.048Z,28189.2
2023-04-03T14:13:33.732Z,27198.3
2023-04-03T14:18:50.780Z,23551.2
2023-04-03T14:24:08.256Z,24374.2
2023-04-03T14:29:32.719Z,24303.3
2023-04-03T14:34:50.092Z,23376.2
2023-04-03T14:40:07.289Z,20176.7
2023-04-03T14:50:54.804Z,14520.8
2023-04-03T14:56:15.179Z,19824.6
2023-04-03T15:01:31.651Z,18482.5
2023-04-03T15:06:46.863Z,3062.1
2023-04-03T15:12:02.232Z,2903.3
2023-04-03T15:17:18.924Z,2842.5
2023-04-03T15:22:35.261Z,2807.1
2023-04-03T15:27:54.399Z,2770
2023-04-03T15:34:00.152Z,2735.4
2023-04-03T15:39:17.247Z,2690.8
2023-04-03T15:44:33.860Z,2654.2
2023-04-03T15:49:50.845Z,2610.4
2023-04-03T15:55:07.674Z,2581.3
2023-04-03T16:00:24.629Z,2545
2023-04-03T16:05:41.432Z,2492.5
2023-04-03T16:11:03.316Z,2451.3
2023-04-03T16:16:20.410Z,2402.1
2023-04-03T16:21:38.976Z,2358.8
2023-04-03T16:26:59.934Z,2300
2023-04-03T16:32:16.945Z,2234.2
2023-04-03T16:37:34.052Z,2175.8
2023-04-03T16:43:08.491Z,2120.8
2023-04-03T16:48:25.780Z,2055
2023-04-03T16:53:42.755Z,1988.7
2023-04-03T16:58:59.861Z,1913.7
2023-04-03T17:04:16.778Z,1835.4
2023-04-03T17:09:33.748Z,1738.3
2023-04-03T17:14:50.831Z,1636.7
2023-04-03T17:20:07.707Z,1533.8
2023-04-03T17:25:24.705Z,1420
2023-04-03T17:30:41.692Z,1292.1
2023-04-03T17:35:58.744Z,1156.7
2023-04-03T17:41:15.686Z,1010.8
2023-04-03T17:46:34.727Z,859.6
2023-04-03T17:51:52.345Z,701.2
2023-04-03T18:02:51.195Z,387.9
2023-04-03T18:08:08.542Z,247.1
2023-04-03T18:13:25.434Z,146.3
2023-04-03T18:18:42.455Z,76.7
2023-04-03T18:24:01.986Z,34.6
2023-04-03T18:29:36.471Z,0.9
2023-04-03T18:34:54.232Z,0
2023-04-03T18:40:11.953Z,0
2023-04-03T18:45:29.234Z,0
2023-04-03T18:50:46.730Z,0
2023-04-03T18:56:04.144Z,0
2023-04-03T19:01:24.286Z,0
2023-04-03T19:06:41.951Z,0
2023-04-03T19:12:02.316Z,0
2023-04-03T19:17:23.607Z,0
2023-04-03T19:27:51.790Z,0
2023-04-03T19:33:09.117Z,0
2023-04-03T19:38:27.014Z,0
2023-04-03T19:43:44.428Z,0
2023-04-03T19:49:01.769Z,0
2023-04-03T19:54:33.700Z,0
2023-04-03T19:59:52.944Z,0
2023-04-03T20:05:11.996Z,0
2023-04-03T20:10:32.411Z,0
2023-04-03T20:15:52.574Z,0
2023-04-03T20:21:21.419Z,0
2023-04-03T20:26:40.391Z,0
2023-04-03T20:31:59.431Z,0
2023-04-03T20:37:16.899Z,0
2023-04-03T20:42:34.103Z,0
2023-04-03T20:47:51.592Z,0
2023-04-03T20:53:09.018Z,0
2023-04-03T20:58:26.272Z,0
2023-04-03T21:03:43.609Z,0
2023-04-03T21:09:01.851Z,0
2023-04-03T21:14:18.957Z,0
2023-04-03T21:19:36.330Z,0
2023-04-03T21:24:53.601Z,0
2023-04-03T21:30:10.814Z,0
2023-04-03T21:35:28.015Z,0
2023-04-03T21:40:45.707Z,0
2023-04-03T21:46:03.053Z,0
2023-04-03T21:51:20.254Z,0
2023-04-03T21:56:37.585Z,0
2023-04-03T22:01:54.975Z,0
2023-04-03T22:07:12.603Z,0
2023-04-03T22:12:29.990Z,0
2023-04-03T22:17:47.431Z,0
2023-04-03T22:23:04.593Z,0
2023-04-03T22:28:24.128Z,0
2023-04-03T22:33:41.541Z,0
2023-04-03T22:38:59.058Z,0
2023-04-03T22:44:16.094Z,0
2023-04-03T22:49:33.438Z,0
2023-04-03T22:54:50.706Z,0
2023-04-03T23:00:08.269Z,0
2023-04-03T23:05:25.546Z,0
2023-04-03T23:10:42.918Z,0
2023-04-03T23:16:03.436Z,0
2023-04-03T23:21:38.511Z,0
2023-04-03T23:26:55.884Z,0
2023-04-03T23:32:13.144Z,0
2023-04-03T23:37:33.201Z,0
2023-04-03T23:42:50.645Z,0
2023-04-03T23:48:08.162Z,0
2023-04-03T23:54:10.183Z,0
2023-04-03T23:59:28.008Z,0
